Hallie, Kentucky
Current Conditions -  °F | °C
As of 12:15 AM on Tuesday 21 Oct 2014 (Local Time) from KI35 Reporting Station
Clear Clear  
Wind Chill: 50°   Ceiling: Unl
Heat Index: 50°   Visibility: 10mi
Dew Point: 50°   Wind: 0mph
Humidity: 100%   Direction: NA
Pressure: 29.99"   Gusts: NA
Location:  37°N, 83.06°W
Report Text: KI35 210415Z AUTO 00000KT 10SM CLR 10/10 A2999 RMK AO1
Loading
Personal Weather Stations






























Interactive Weather Map
Tropical Storm Tracking
New forecast layout! Learn more

10-Day Weather Forecast

Advertisements
Track Severe Weather on mobile